Time;durP1;ratioP1;P1;durP2;ratioP2;P2;SDS_P1;SDS_P2;PMS_P1;PMS_P2;Temp;Humidity;BMP_temperature;BMP_pressure;BME280_temperature;BME280_humidity;BME280_pressure;Samples;Min_cycle;Max_cycle;Signal;HPM_P1;HPM_P2
2022/06/10 00:00:33;;;;;;;6.03;3.60;;;13.20;99.90;;;;;;4675786;28;10000590;-75
2022/06/10 00:02:59;;;;;;;3.50;3.20;;;13.20;99.90;;;;;;5024982;28;20059;-75
2022/06/10 00:05:28;;;;;;;3.85;3.20;;;13.20;99.90;;;;;;5018455;28;20062;-74
2022/06/10 00:07:54;;;;;;;3.67;3.30;;;13.20;99.90;;;;;;5019634;28;20021;-75
2022/06/10 00:10:24;;;;;;;4.65;3.25;;;13.20;99.90;;;;;;5024556;28;20083;-74
2022/06/10 00:12:49;;;;;;;5.10;3.40;;;13.20;99.90;;;;;;5028495;28;20018;-74
2022/06/10 00:15:15;;;;;;;4.88;3.17;;;13.10;99.90;;;;;;5026795;28;20040;-75
2022/06/10 00:17:41;;;;;;;5.72;3.10;;;13.10;99.90;;;;;;5026008;28;20497;-74
2022/06/10 00:20:10;;;;;;;3.17;2.85;;;13.10;99.90;;;;;;5025697;28;20544;-74
2022/06/10 00:22:35;;;;;;;3.75;3.35;;;13.00;99.90;;;;;;5021026;28;20025;-74
2022/06/10 00:25:01;;;;;;;4.82;2.97;;;13.00;99.90;;;;;;5017606;28;20034;-75
2022/06/10 00:27:27;;;;;;;3.50;3.10;;;13.00;99.90;;;;;;5026166;28;20026;-74
2022/06/10 00:29:53;;;;;;;4.28;3.03;;;12.90;99.90;;;;;;5014888;28;20022;-74
2022/06/10 00:32:19;;;;;;;5.35;3.30;;;12.90;99.90;;;;;;5023420;28;20528;-74
2022/06/10 00:34:45;;;;;;;5.25;2.88;;;12.90;99.90;;;;;;5026145;28;20173;-75
2022/06/10 00:37:10;;;;;;;3.50;3.20;;;12.90;99.90;;;;;;5027710;28;20095;-75
2022/06/10 00:39:36;;;;;;;6.45;3.47;;;12.80;99.90;;;;;;5012851;28;20029;-74
2022/06/10 00:42:04;;;;;;;3.80;2.83;;;12.80;99.90;;;;;;5013723;28;20037;-75
2022/06/10 00:44:46;;;;;;;4.20;2.92;;;12.80;99.90;;;;;;5010619;28;20560;-74
2022/06/10 00:47:19;;;;;;;4.60;3.15;;;12.70;99.90;;;;;;5027228;28;20580;-75
2022/06/10 00:50:02;;;;;;;3.40;3.15;;;12.70;99.90;;;;;;5023835;28;20029;-75
2022/06/10 00:52:33;;;;;;;4.25;3.17;;;12.70;99.90;;;;;;5024067;28;20466;-74
2022/06/10 00:55:00;;;;;;;3.30;3.00;;;12.60;99.90;;;;;;5024350;28;20037;-75
2022/06/10 00:57:31;;;;;;;3.03;2.70;;;12.60;99.90;;;;;;5025478;28;20116;-74
2022/06/10 01:00:05;;;;;;;4.53;3.20;;;12.60;99.90;;;;;;5021915;28;20029;-75
2022/06/10 01:02:32;;;;;;;3.50;3.20;;;12.60;99.90;;;;;;5016566;28;20386;-75
2022/06/10 01:05:00;;;;;;;3.22;2.90;;;12.50;99.90;;;;;;5018545;28;20037;-75
2022/06/10 01:07:31;;;;;;;4.47;3.25;;;12.50;99.90;;;;;;5024788;28;20481;-74
2022/06/10 01:10:00;;;;;;;3.83;3.17;;;12.50;99.90;;;;;;5012805;28;20622;-74
2022/06/10 01:12:37;;;;;;;4.20;3.20;;;12.50;99.90;;;;;;5018153;28;20098;-74
2022/06/10 01:15:45;;;;;;;4.55;3.13;;;12.40;99.90;;;;;;5017971;28;20040;-74
2022/06/10 01:18:24;;;;;;;4.22;3.45;;;12.40;99.90;;;;;;5023079;28;20041;-74
2022/06/10 01:21:03;;;;;;;6.90;3.83;;;12.30;99.90;;;;;;5021344;28;20029;-74
2022/06/10 01:23:49;;;;;;;4.82;4.32;;;12.30;99.90;;;;;;5026591;28;20029;-74
2022/06/10 01:29:42;;;;;;;6.25;4.07;;;12.30;99.90;;;;;;5017691;28;20394;-74
2022/06/10 01:32:19;;;;;;;;;;;12.20;99.90;;;;;;5026644;28;20039;-74
2022/06/10 01:35:00;;;;;;;5.18;3.97;;;12.20;99.90;;;;;;5029257;28;19917;-74
2022/06/10 01:37:34;;;;;;;4.85;4.38;;;12.10;99.90;;;;;;5008475;28;20455;-74
2022/06/10 01:40:18;;;;;;;4.47;4.03;;;;;;;;;;5021528;28;20511;-74
2022/06/10 01:42:48;;;;;;;4.75;4.25;;;;;;;;;;5021861;28;20036;-74
2022/06/10 01:45:20;;;;;;;5.82;4.30;;;;;;;;;;5020362;28;20033;-74
2022/06/10 01:47:51;;;;;;;5.10;4.00;;;;;;;;;;5026752;28;20030;-74
2022/06/10 01:50:24;;;;;;;5.90;4.15;;;;;;;;;;5025257;28;20059;-74
2022/06/10 01:53:28;;;;;;;4.75;4.35;;;12.20;99.90;;;;;;5025327;28;20030;-74
2022/06/10 01:56:05;;;;;;;4.68;4.00;;;12.10;99.90;;;;;;5024970;28;20018;-74
2022/06/10 01:58:43;;;;;;;4.85;4.35;;;12.00;99.90;;;;;;5024553;28;20030;-74
2022/06/10 02:01:16;;;;;;;4.10;3.70;;;12.00;99.90;;;;;;5025718;28;20080;-75
2022/06/10 02:03:51;;;;;;;5.77;4.23;;;12.00;99.90;;;;;;5025995;28;20385;-74
2022/06/10 02:06:26;;;;;;;4.22;3.67;;;11.90;99.90;;;;;;5022024;28;20391;-74
2022/06/10 02:09:02;;;;;;;5.47;4.28;;;11.90;99.90;;;;;;5020168;28;20025;-74
2022/06/10 02:11:30;;;;;;;6.35;4.25;;;11.90;99.90;;;;;;5025347;28;20029;-74
2022/06/10 02:14:07;;;;;;;4.25;3.80;;;11.90;99.90;;;;;;5021002;28;20418;-74
2022/06/10 02:16:37;;;;;;;4.18;3.78;;;11.80;99.90;;;;;;5025041;28;20041;-74
2022/06/10 02:19:10;;;;;;;6.88;4.32;;;11.90;99.90;;;;;;5024837;28;20032;-74
2022/06/10 02:21:53;;;;;;;5.20;4.13;;;11.80;99.90;;;;;;5024943;28;20067;-74
2022/06/10 02:24:25;;;;;;;6.18;4.70;;;11.80;99.90;;;;;;5024629;28;20156;-74
2022/06/10 02:26:55;;;;;;;4.82;4.43;;;11.80;99.90;;;;;;5021234;28;20022;-74
2022/06/10 02:29:28;;;;;;;4.80;4.20;;;11.80;99.90;;;;;;5012434;28;20064;-74
2022/06/10 02:31:59;;;;;;;5.45;4.60;;;11.70;99.90;;;;;;5024786;28;20033;-74
2022/06/10 02:34:26;;;;;;;4.68;4.28;;;11.70;99.90;;;;;;5023812;28;20323;-74
2022/06/10 02:37:09;;;;;;;6.28;4.82;;;11.70;99.90;;;;;;5010718;28;20030;-74
2022/06/10 02:40:09;;;;;;;4.47;4.07;;;11.70;99.90;;;;;;5009815;28;20034;-74
2022/06/10 02:43:09;;;;;;;5.65;4.80;;;11.70;99.90;;;;;;5010803;28;20076;-73
2022/06/10 02:45:59;;;;;;;7.40;5.07;;;11.70;99.90;;;;;;5016663;28;20021;-74
2022/06/10 02:48:49;;;;;;;7.07;4.95;;;11.70;99.90;;;;;;5016528;28;20018;-73
2022/06/10 02:51:16;;;;;;;6.05;5.55;;;11.70;99.90;;;;;;5030234;28;20030;-74
2022/06/10 02:53:42;;;;;;;5.65;4.97;;;11.70;99.90;;;;;;5013993;28;20034;-74
2022/06/10 02:56:18;;;;;;;5.63;5.13;;;11.60;99.90;;;;;;5022396;28;20084;-74
2022/06/10 03:01:51;;;;;;;6.00;5.40;;;11.60;99.90;;;;;;4973900;28;20043;-74
2022/06/10 03:04:35;;;;;;;5.72;5.22;;;11.50;99.90;;;;;;5021619;28;20237;-74
2022/06/10 03:07:30;;;;;;;6.40;5.80;;;11.50;99.90;;;;;;5022500;28;20088;-74
2022/06/10 03:10:11;;;;;;;6.30;5.70;;;11.50;99.90;;;;;;5027976;28;20041;-74
2022/06/10 03:12:55;;;;;;;8.40;5.68;;;11.50;99.90;;;;;;5024386;28;20203;-74
2022/06/10 03:15:43;;;;;;;6.55;5.95;;;11.50;99.90;;;;;;5009814;28;20065;-74
2022/06/10 03:18:27;;;;;;;5.88;5.35;;;11.40;99.90;;;;;;5014923;28;20410;-74
2022/06/10 03:21:04;;;;;;;5.85;5.35;;;11.50;99.90;;;;;;5011826;28;20053;-74
2022/06/10 03:23:32;;;;;;;5.55;5.05;;;11.50;99.90;;;;;;5019144;28;20036;-74
2022/06/10 03:26:13;;;;;;;6.65;5.75;;;11.50;99.90;;;;;;5027551;28;20036;-74
2022/06/10 03:29:16;;;;;;;5.82;5.22;;;11.50;99.90;;;;;;5019521;28;20030;-74
2022/06/10 03:31:50;;;;;;;5.90;5.40;;;11.50;99.90;;;;;;5028007;28;20022;-73
2022/06/10 03:34:32;;;;;;;6.03;5.45;;;11.50;99.90;;;;;;5027329;28;20046;-74
2022/06/10 03:37:01;;;;;;;7.05;6.35;;;11.60;99.90;;;;;;5016686;28;20081;-74
2022/06/10 03:39:28;;;;;;;8.20;5.85;;;11.60;99.90;;;;;;5022573;28;20116;-74
2022/06/10 03:42:27;;;;;;;7.20;6.13;;;11.60;99.90;;;;;;5027276;28;20037;-73
2022/06/10 03:44:56;;;;;;;8.43;5.68;;;11.60;99.90;;;;;;4976727;28;20525;-74
2022/06/10 03:47:30;;;;;;;5.85;5.35;;;11.70;99.90;;;;;;5010021;28;20120;-74
2022/06/10 03:50:06;;;;;;;6.88;5.70;;;11.70;99.90;;;;;;5018839;28;20040;-73
2022/06/10 03:52:33;;;;;;;6.90;5.72;;;11.80;99.90;;;;;;5024096;28;20026;-73
2022/06/10 03:54:59;;;;;;;6.60;5.90;;;11.80;99.90;;;;;;5024562;28;20165;-73
2022/06/10 03:57:25;;;;;;;6.07;5.45;;;11.90;99.90;;;;;;5020001;28;20029;-73
2022/06/10 03:59:50;;;;;;;5.70;5.20;;;11.90;99.90;;;;;;5022892;28;20021;-73
2022/06/10 04:02:16;;;;;;;6.78;5.60;;;12.00;99.90;;;;;;5025886;28;20481;-73
2022/06/10 04:04:44;;;;;;;6.30;5.53;;;12.10;99.90;;;;;;5020650;28;20140;-73
2022/06/10 04:07:13;;;;;;;5.90;5.30;;;12.10;99.90;;;;;;5026697;28;20032;-73
2022/06/10 04:09:39;;;;;;;6.20;5.57;;;12.10;99.90;;;;;;5020213;28;20035;-73
2022/06/10 04:12:05;;;;;;;8.82;5.45;;;;;;;;;;5023056;28;20029;-74
2022/06/10 04:14:31;;;;;;;9.07;5.07;;;;;;;;;;5026723;28;20382;-73
2022/06/10 04:16:57;;;;;;;5.47;4.95;;;15.20;99.90;;;;;;5023390;28;20021;-73
2022/06/10 04:19:23;;;;;;;6.25;4.47;;;16.60;99.90;;;;;;5023370;28;20025;-74
2022/06/10 04:21:49;;;;;;;7.63;4.50;;;17.50;99.90;;;;;;5028188;28;20386;-74
2022/06/10 04:24:14;;;;;;;5.22;4.38;;;18.30;99.90;;;;;;5025115;28;20501;-73
2022/06/10 04:26:40;;;;;;;4.97;4.50;;;18.60;99.90;;;;;;5017783;28;20040;-74
2022/06/10 04:29:05;;;;;;;6.63;4.55;;;18.20;99.90;;;;;;5008447;28;20574;-73
2022/06/10 04:31:31;;;;;;;5.22;4.60;;;17.80;99.90;;;;;;5011251;28;20048;-74
2022/06/10 04:33:57;;;;;;;5.13;4.53;;;17.20;99.90;;;;;;5027372;28;20385;-74
2022/06/10 04:36:22;;;;;;;7.00;4.32;;;16.70;99.90;;;;;;5028185;28;20030;-74
2022/06/10 04:38:48;;;;;;;5.90;4.30;;;16.20;99.90;;;;;;5025948;28;20034;-74
2022/06/10 04:41:14;;;;;;;5.32;4.57;;;15.90;99.90;;;;;;5027502;28;20128;-74
2022/06/10 04:43:40;;;;;;;5.60;4.28;;;15.60;99.90;;;;;;5015884;28;20111;-74
2022/06/10 04:46:08;;;;;;;5.10;4.18;;;15.20;99.90;;;;;;5020950;28;20022;-74
2022/06/10 04:48:34;;;;;;;8.00;4.53;;;15.00;99.90;;;;;;5025107;28;20025;-74
2022/06/10 04:51:00;;;;;;;6.22;4.32;;;14.80;99.90;;;;;;5027000;28;20033;-74
2022/06/10 04:53:26;;;;;;;4.53;4.13;;;14.50;99.90;;;;;;5026003;28;20043;-74
2022/06/10 04:55:52;;;;;;;5.63;4.60;;;14.40;99.90;;;;;;5022570;28;20131;-74
2022/06/10 04:58:18;;;;;;;5.22;4.50;;;14.30;99.90;;;;;;5010844;28;20112;-73
2022/06/10 05:00:50;;;;;;;5.30;4.43;;;14.40;99.90;;;;;;5014422;28;20167;-74
2022/06/10 05:03:16;;;;;;;5.10;4.57;;;14.40;99.90;;;;;;5012125;28;20030;-73
2022/06/10 05:05:42;;;;;;;7.35;4.97;;;14.40;99.90;;;;;;5023124;28;20386;-73
2022/06/10 05:08:11;;;;;;;4.95;4.45;;;14.40;99.90;;;;;;5026349;28;20029;-73
2022/06/10 05:10:37;;;;;;;6.00;4.45;;;14.50;99.90;;;;;;5022126;28;20490;-73
2022/06/10 05:13:03;;;;;;;6.97;5.00;;;14.50;99.90;;;;;;5010969;28;20251;-73
2022/06/10 05:15:29;;;;;;;5.63;4.85;;;14.60;99.90;;;;;;5023924;28;20099;-73
2022/06/10 05:17:57;;;;;;;6.35;4.50;;;14.70;99.90;;;;;;5022541;28;20053;-74
2022/06/10 05:20:29;;;;;;;6.10;4.70;;;14.80;99.90;;;;;;5017478;28;20581;-74
2022/06/10 05:22:55;;;;;;;6.68;4.50;;;14.80;99.90;;;;;;5020982;28;20111;-73
2022/06/10 05:25:20;;;;;;;5.85;4.22;;;14.90;99.90;;;;;;5023064;28;20032;-73
2022/06/10 05:27:46;;;;;;;4.75;4.30;;;15.00;99.90;;;;;;5024148;28;20028;-73
2022/06/10 05:30:23;;;;;;;6.85;4.43;;;15.10;99.90;;;;;;5009467;28;20034;-73
2022/06/10 05:32:49;;;;;;;8.65;4.45;;;15.20;99.90;;;;;;4671084;28;9999942;-74
2022/06/10 05:35:15;;;;;;;4.70;4.30;;;15.30;99.90;;;;;;5007866;28;20046;-74
2022/06/10 05:37:41;;;;;;;4.75;4.15;;;15.40;99.90;;;;;;5012203;28;20025;-74
2022/06/10 05:40:10;;;;;;;6.15;4.30;;;15.50;99.90;;;;;;5016914;28;20481;-75
2022/06/10 05:42:35;;;;;;;6.55;4.05;;;15.60;99.90;;;;;;5023542;28;20641;-75
2022/06/10 05:45:01;;;;;;;7.07;3.97;;;15.70;99.90;;;;;;5022010;28;20059;-74
2022/06/10 05:47:33;;;;;;;4.47;4.07;;;15.70;99.90;;;;;;5013679;28;20037;-74
2022/06/10 05:50:00;;;;;;;4.45;4.05;;;15.70;99.90;;;;;;5012204;28;20021;-75
2022/06/10 05:52:28;;;;;;;6.20;4.25;;;15.80;99.90;;;;;;5012033;28;20025;-75
2022/06/10 05:54:56;;;;;;;6.63;3.83;;;15.80;99.90;;;;;;5015220;28;20033;-75
2022/06/10 05:57:23;;;;;;;7.03;4.03;;;15.80;99.90;;;;;;5004305;28;20061;-75
2022/06/10 05:59:52;;;;;;;6.57;4.50;;;15.90;99.90;;;;;;5001752;28;20022;-75
2022/06/10 06:02:20;;;;;;;6.32;4.65;;;16.20;99.90;;;;;;5014051;28;20080;-75
2022/06/10 06:04:46;;;;;;;5.05;4.22;;;16.40;99.90;;;;;;5003518;28;20125;-75
2022/06/10 06:07:18;;;;;;;5.90;4.38;;;16.40;99.90;;;;;;5020308;28;20408;-75
2022/06/10 06:09:44;;;;;;;5.63;4.20;;;16.60;99.90;;;;;;5011667;28;20320;-75
2022/06/10 06:12:09;;;;;;;4.60;4.10;;;16.90;99.90;;;;;;5019303;28;20104;-75
2022/06/10 06:14:35;;;;;;;6.93;4.80;;;16.80;99.90;;;;;;5025264;28;20021;-75
2022/06/10 06:17:03;;;;;;;5.00;4.53;;;17.10;99.90;;;;;;5018954;28;20025;-75
2022/06/10 06:19:30;;;;;;;7.28;4.57;;;17.20;99.90;;;;;;5005747;28;20022;-74
2022/06/10 06:21:56;;;;;;;7.22;4.35;;;17.30;99.90;;;;;;5025610;28;20067;-74
2022/06/10 06:24:22;;;;;;;6.20;4.57;;;17.30;99.90;;;;;;5025607;28;20029;-75
2022/06/10 06:26:48;;;;;;;5.53;4.60;;;17.40;99.90;;;;;;5017154;28;20092;-74
2022/06/10 06:29:14;;;;;;;6.93;4.68;;;17.50;99.90;;;;;;5022603;28;20029;-75
2022/06/10 06:31:41;;;;;;;6.55;4.13;;;17.50;99.90;;;;;;5022262;28;20026;-75
2022/06/10 06:34:07;;;;;;;7.50;4.55;;;17.60;99.90;;;;;;5019770;28;20037;-75
2022/06/10 06:36:39;;;;;;;4.95;4.40;;;17.80;99.90;;;;;;5017659;28;20033;-74
2022/06/10 06:39:05;;;;;;;7.63;4.20;;;18.10;99.90;;;;;;5011329;28;20032;-75
2022/06/10 06:41:31;;;;;;;6.65;4.57;;;18.20;99.90;;;;;;5026014;28;20740;-75
2022/06/10 06:43:57;;;;;;;7.03;4.40;;;18.30;99.90;;;;;;5025418;28;20116;-75
2022/06/10 06:46:23;;;;;;;9.45;4.70;;;18.40;99.90;;;;;;5018858;28;20026;-75
2022/06/10 06:48:49;;;;;;;4.95;4.45;;;18.60;99.90;;;;;;5023869;28;20472;-75
2022/06/10 06:51:15;;;;;;;6.72;4.43;;;18.70;99.90;;;;;;5024690;28;20046;-75
2022/06/10 06:53:40;;;;;;;7.63;4.80;;;18.70;99.90;;;;;;5025077;28;20025;-75
2022/06/10 06:56:07;;;;;;;6.28;4.22;;;18.90;99.90;;;;;;5024561;28;20037;-75
2022/06/10 06:58:33;;;;;;;8.27;4.90;;;18.80;99.90;;;;;;5023902;28;20043;-75
2022/06/10 07:00:58;;;;;;;6.43;4.70;;;19.00;99.90;;;;;;5025361;28;20030;-75
2022/06/10 07:03:25;;;;;;;6.78;4.57;;;19.30;99.90;;;;;;5017917;28;20099;-75
2022/06/10 07:05:52;;;;;;;5.47;4.63;;;19.40;99.90;;;;;;5028313;28;20037;-75
2022/06/10 07:08:18;;;;;;;6.93;5.15;;;19.50;99.90;;;;;;5022683;28;20091;-76
2022/06/10 07:10:44;;;;;;;6.75;5.53;;;19.70;99.90;;;;;;5013549;28;20028;-76
2022/06/10 07:13:12;;;;;;;7.60;5.07;;;19.80;99.90;;;;;;5025127;28;20036;-75
2022/06/10 07:15:39;;;;;;;6.90;5.97;;;20.00;99.90;;;;;;5022701;28;20125;-75
2022/06/10 07:18:06;;;;;;;9.43;5.63;;;20.00;99.90;;;;;;5019570;28;20037;-76
2022/06/10 07:20:34;;;;;;;7.32;5.30;;;20.00;99.90;;;;;;5022368;28;20120;-75
2022/06/10 07:23:01;;;;;;;8.50;5.63;;;20.10;99.90;;;;;;5021156;28;20034;-76
2022/06/10 07:25:29;;;;;;;13.35;5.80;;;20.30;99.90;;;;;;5005995;28;20077;-75
2022/06/10 07:27:56;;;;;;;8.77;5.55;;;20.50;99.90;;;;;;5007861;28;20033;-76
2022/06/10 07:30:25;;;;;;;7.57;4.78;;;20.50;99.90;;;;;;5017954;28;20494;-76
2022/06/10 07:32:51;;;;;;;9.38;5.45;;;20.70;99.90;;;;;;5017143;28;20052;-75
2022/06/10 07:35:18;;;;;;;9.48;5.10;;;20.70;99.90;;;;;;5025386;28;20120;-75
2022/06/10 07:37:45;;;;;;;9.05;5.18;;;20.80;99.90;;;;;;5022012;28;20037;-76
2022/06/10 07:43:02;;;;;;;9.60;5.40;;;21.00;99.90;;;;;;5025021;28;20087;-75
2022/06/10 07:45:28;;;;;;;12.43;5.53;;;21.20;99.90;;;;;;5011772;28;20033;-75
2022/06/10 07:47:54;;;;;;;10.50;4.82;;;21.30;99.90;;;;;;5012561;28;20553;-74
2022/06/10 07:50:21;;;;;;;9.98;5.00;;;21.40;99.90;;;;;;5013865;28;20053;-75
2022/06/10 07:52:47;;;;;;;7.20;5.15;;;21.50;99.90;;;;;;5027001;28;20288;-75
2022/06/10 07:55:13;;;;;;;7.82;4.88;;;21.50;99.90;;;;;;5016272;28;20048;-76
2022/06/10 07:57:39;;;;;;;10.73;5.65;;;21.50;99.90;;;;;;5023870;28;20473;-76
2022/06/10 08:00:05;;;;;;;7.80;4.57;;;21.70;99.90;;;;;;5023351;28;20367;-76
2022/06/10 08:02:31;;;;;;;6.40;4.53;;;21.90;99.90;;;;;;5021281;28;20396;-76
2022/06/10 08:04:57;;;;;;;8.88;3.80;;;21.90;99.90;;;;;;5021617;28;20029;-76
2022/06/10 08:07:22;;;;;;;8.77;3.95;;;22.10;99.90;;;;;;5031671;28;20022;-76
2022/06/10 08:09:48;;;;;;;8.13;3.33;;;22.30;99.90;;;;;;5024814;28;20111;-76
2022/06/10 08:12:14;;;;;;;9.43;4.20;;;22.50;99.90;;;;;;5028124;28;20394;-76
2022/06/10 08:14:39;;;;;;;6.93;3.33;;;22.60;99.90;;;;;;5026081;28;20049;-76
2022/06/10 08:17:07;;;;;;;7.13;2.83;;;22.70;99.90;;;;;;5025977;28;20033;-76
2022/06/10 08:19:33;;;;;;;10.35;2.60;;;22.80;99.90;;;;;;5020418;28;20133;-76
2022/06/10 08:24:43;;;;;;;4.82;1.90;;;23.10;99.90;;;;;;5015482;28;20032;-76
2022/06/10 08:27:09;;;;;;;7.90;2.00;;;23.20;97.70;;;;;;5022494;28;20117;-76
2022/06/10 08:29:34;;;;;;;8.25;2.03;;;23.40;97.10;;;;;;5008770;28;20501;-75
2022/06/10 08:32:00;;;;;;;5.00;1.73;;;23.40;95.40;;;;;;5027568;28;20418;-76
2022/06/10 08:34:26;;;;;;;5.43;2.10;;;23.50;96.50;;;;;;5026208;28;20138;-76
2022/06/10 08:36:51;;;;;;;10.27;2.20;;;23.60;93.80;;;;;;5027621;28;20021;-76
2022/06/10 08:39:17;;;;;;;3.47;1.73;;;23.60;94.20;;;;;;5023445;28;20029;-76
2022/06/10 08:41:55;;;;;;;5.10;2.50;;;23.70;94.70;;;;;;5019710;28;20056;-76
2022/06/10 08:44:24;;;;;;;7.50;2.15;;;23.70;93.50;;;;;;5022172;28;20026;-76
2022/06/10 08:47:07;;;;;;;5.00;2.22;;;23.80;93.40;;;;;;5018408;28;20064;-76
2022/06/10 08:49:54;;;;;;;7.07;2.63;;;23.70;93.60;;;;;;5024821;28;20025;-76
2022/06/10 08:52:19;;;;;;;6.95;2.30;;;23.80;92.90;;;;;;5012730;28;20514;-75
2022/06/10 08:55:03;;;;;;;6.47;2.30;;;23.80;92.10;;;;;;5027007;28;20056;-76
2022/06/10 08:57:36;;;;;;;8.48;2.90;;;23.80;93.70;;;;;;5020725;28;20397;-75
2022/06/10 09:00:11;;;;;;;10.15;2.47;;;24.00;92.70;;;;;;5023459;28;20025;-75
2022/06/10 09:03:02;;;;;;;8.32;2.15;;;24.10;92.10;;;;;;5021023;28;20696;-75
2022/06/10 09:05:30;;;;;;;11.52;2.30;;;24.10;91.70;;;;;;5026844;28;20048;-75
2022/06/10 09:08:00;;;;;;;4.47;1.88;;;24.20;92.30;;;;;;5008587;28;20110;-76
2022/06/10 09:10:48;;;;;;;6.20;2.20;;;24.40;92.20;;;;;;5011041;28;20021;-76
2022/06/10 09:13:29;;;;;;;9.77;2.13;;;24.40;88.80;;;;;;5020827;28;20468;-76
2022/06/10 09:16:15;;;;;;;5.88;1.95;;;24.30;89.40;;;;;;5013209;28;20036;-76
2022/06/10 09:18:55;;;;;;;5.80;1.77;;;24.20;87.90;;;;;;5013138;28;20528;-76
2022/06/10 09:21:34;;;;;;;6.32;1.42;;;24.10;85.30;;;;;;5026830;28;20041;-76
2022/06/10 09:24:07;;;;;;;3.25;1.20;;;24.00;81.90;;;;;;5019096;28;20033;-76
2022/06/10 09:26:42;;;;;;;4.70;1.77;;;24.00;82.50;;;;;;5014629;28;20037;-76
2022/06/10 09:29:09;;;;;;;5.70;1.67;;;24.10;84.00;;;;;;5006115;28;20500;-76
2022/06/10 09:31:40;;;;;;;4.80;1.52;;;24.20;83.10;;;;;;5025978;28;20049;-76
2022/06/10 09:34:36;;;;;;;3.65;1.20;;;24.30;81.80;;;;;;5026359;28;20545;-76
2022/06/10 09:37:28;;;;;;;4.63;1.48;;;24.40;78.00;;;;;;5026712;28;20040;-76
2022/06/10 09:43:26;;;;;;;4.65;1.40;;;24.50;76.80;;;;;;5022946;28;20056;-76
2022/06/10 09:45:55;;;;;;;5.32;1.42;;;24.50;77.00;;;;;;5026379;28;20501;-76
2022/06/10 09:48:39;;;;;;;4.25;1.40;;;24.60;75.90;;;;;;5022323;28;20497;-77
2022/06/10 09:51:43;;;;;;;4.75;1.35;;;24.50;75.10;;;;;;5020331;28;20105;-76
2022/06/10 09:54:37;;;;;;;9.70;1.58;;;24.60;75.40;;;;;;5020327;28;20402;-76
2022/06/10 09:57:29;;;;;;;5.25;1.20;;;24.70;76.20;;;;;;5025868;28;20029;-76
2022/06/10 10:00:04;;;;;;;6.43;1.17;;;24.80;74.10;;;;;;5015492;28;20482;-76
2022/06/10 10:02:49;;;;;;;3.83;1.17;;;24.80;72.80;;;;;;5008366;28;20033;-76
2022/06/10 10:05:15;;;;;;;4.65;1.38;;;24.90;74.60;;;;;;5023861;28;20119;-76
2022/06/10 10:07:50;;;;;;;3.72;1.20;;;24.90;72.50;;;;;;5025707;28;20143;-76
2022/06/10 10:10:45;;;;;;;5.38;1.42;;;24.90;71.70;;;;;;5023069;28;20026;-76
2022/06/10 10:13:40;;;;;;;6.20;1.30;;;25.10;70.70;;;;;;5026709;28;20030;-76
2022/06/10 10:16:11;;;;;;;6.22;1.23;;;25.20;70.30;;;;;;5020242;28;20060;-76
2022/06/10 10:18:55;;;;;;;3.72;1.38;;;25.30;69.40;;;;;;5023174;28;20025;-76
2022/06/10 10:21:24;;;;;;;5.88;1.40;;;25.40;69.70;;;;;;5026943;28;20031;-76
2022/06/10 10:23:53;;;;;;;3.72;1.30;;;25.50;69.90;;;;;;5018113;28;20088;-76
2022/06/10 10:26:23;;;;;;;4.93;1.30;;;25.50;67.80;;;;;;5022845;28;20120;-76
2022/06/10 10:29:02;;;;;;;6.50;1.40;;;25.50;68.30;;;;;;5019174;28;20068;-76
2022/06/10 10:31:32;;;;;;;5.82;1.20;;;25.50;87.00;;;;;;5026291;28;20052;-76
2022/06/10 10:34:01;;;;;;;8.75;1.40;;;25.40;87.00;;;;;;5024878;28;20117;-76
2022/06/10 10:36:35;;;;;;;2.95;1.00;;;25.60;83.60;;;;;;5026435;28;20726;-76
2022/06/10 10:39:32;;;;;;;5.18;1.20;;;25.70;81.00;;;;;;5016458;28;20121;-76
2022/06/10 10:42:04;;;;;;;3.45;1.20;;;25.90;76.90;;;;;;5018822;28;20029;-76
2022/06/10 10:44:36;;;;;;;4.25;1.23;;;25.90;76.60;;;;;;5024952;28;20026;-76
2022/06/10 10:47:10;;;;;;;5.80;1.10;;;25.90;77.20;;;;;;5025547;28;20508;-76
2022/06/10 10:49:47;;;;;;;9.20;1.80;;;26.00;75.50;;;;;;5014024;28;20163;-76
2022/06/10 10:52:15;;;;;;;5.80;1.13;;;25.70;76.00;;;;;;5025910;28;20437;-76
2022/06/10 10:54:43;;;;;;;6.80;1.20;;;25.50;74.80;;;;;;5027109;28;20026;-76
2022/06/10 10:57:36;;;;;;;5.50;1.40;;;25.40;76.20;;;;;;5021775;28;20033;-76
2022/06/10 11:00:10;;;;;;;5.93;1.30;;;25.00;77.90;;;;;;5018669;28;20034;-77
2022/06/10 11:02:47;;;;;;;6.88;1.17;;;24.70;79.70;;;;;;5018918;28;20111;-77
2022/06/10 11:05:26;;;;;;;5.75;1.10;;;24.70;79.50;;;;;;5022172;28;20059;-77
2022/06/10 11:08:31;;;;;;;4.25;1.30;;;24.90;77.70;;;;;;5014680;28;20018;-79
2022/06/10 11:11:08;;;;;;;3.28;1.40;;;25.20;76.20;;;;;;4320984;28;10001250;-78
2022/06/10 11:13:48;;;;;;;4.75;1.30;;;25.40;76.50;;;;;;4997540;28;20076;-78
2022/06/10 11:16:34;;;;;;;3.95;1.10;;;25.60;88.40;;;;;;4991296;28;20038;-78
2022/06/10 11:19:25;;;;;;;5.25;1.23;;;25.80;87.40;;;;;;5001927;28;20125;-79
2022/06/10 11:21:52;;;;;;;4.25;1.20;;;26.00;81.60;;;;;;5000770;28;20041;-78
2022/06/10 11:24:25;;;;;;;3.50;1.10;;;26.20;75.40;;;;;;5008590;28;20117;-77
2022/06/10 11:26:54;;;;;;;4.20;1.27;;;26.10;74.50;;;;;;4996945;28;20034;-77
2022/06/10 11:29:20;;;;;;;4.05;1.40;;;26.20;76.50;;;;;;4999095;28;20072;-77
2022/06/10 11:32:06;;;;;;;4.38;1.15;;;26.30;76.70;;;;;;4997968;28;20777;-76
2022/06/10 11:34:39;;;;;;;3.90;1.25;;;26.40;75.10;;;;;;4996832;28;20200;-75
2022/06/10 11:37:30;;;;;;;4.28;1.30;;;26.50;73.80;;;;;;5003789;28;20030;-76
2022/06/10 11:40:15;;;;;;;2.58;1.20;;;26.40;72.80;;;;;;4995339;28;20049;-75
2022/06/10 11:42:55;;;;;;;8.30;1.30;;;26.60;74.00;;;;;;4988162;28;20542;-76
2022/06/10 11:45:27;;;;;;;3.90;1.20;;;26.60;74.20;;;;;;5021993;28;20039;-76
2022/06/10 11:48:21;;;;;;;3.17;1.00;;;26.60;72.00;;;;;;5019928;28;20326;-76
2022/06/10 11:51:06;;;;;;;3.92;1.42;;;26.50;72.50;;;;;;5013684;28;20030;-75
2022/06/10 11:53:41;;;;;;;4.13;1.10;;;26.60;74.00;;;;;;5006289;28;20117;-75
2022/06/10 11:59:45;;;;;;;5.45;1.42;;;26.80;71.50;;;;;;5010025;28;20172;-76
2022/06/10 12:02:34;;;;;;;4.07;1.27;;;26.90;71.90;;;;;;5016192;28;20169;-77
2022/06/10 12:05:27;;;;;;;6.18;1.42;;;26.80;69.40;;;;;;5008497;28;20091;-77
2022/06/10 12:08:01;;;;;;;4.17;1.17;;;26.40;69.30;;;;;;5019379;28;20037;-77
2022/06/10 12:10:37;;;;;;;3.10;1.10;;;26.10;69.90;;;;;;5004068;28;20284;-77
2022/06/10 12:13:03;;;;;;;4.43;1.10;;;25.80;71.40;;;;;;5022020;28;20033;-77
2022/06/10 12:15:36;;;;;;;17.40;6.10;;;25.90;73.90;;;;;;5020023;28;20039;-77
2022/06/10 12:18:05;;;;;;;5.95;2.58;;;25.80;73.20;;;;;;5020883;28;20095;-76
2022/06/10 12:20:42;;;;;;;5.30;1.70;;;26.00;63.70;;;;;;5023312;28;20029;-76
2022/06/10 12:23:19;;;;;;;4.40;1.30;;;26.30;62.10;;;;;;5013744;28;20044;-76
2022/06/10 12:25:47;;;;;;;6.07;1.38;;;26.30;61.60;;;;;;5018719;28;20111;-77
2022/06/10 12:28:29;;;;;;;4.07;1.50;;;26.20;61.90;;;;;;5023762;28;20025;-75
2022/06/10 12:31:01;;;;;;;4.70;1.23;;;26.10;61.40;;;;;;5022245;28;20108;-74
2022/06/10 12:33:33;;;;;;;3.73;1.37;;;26.20;62.20;;;;;;5019114;28;20144;-75
2022/06/10 12:36:00;;;;;;;5.28;1.40;;;26.40;62.60;;;;;;5023684;28;20283;-74
2022/06/10 12:38:32;;;;;;;4.30;1.10;;;26.60;62.20;;;;;;5019869;28;20038;-74
2022/06/10 12:41:06;;;;;;;3.75;1.25;;;26.60;60.80;;;;;;5017447;28;20033;-77
2022/06/10 12:43:41;;;;;;;4.57;1.30;;;26.30;62.00;;;;;;5007441;28;20242;-77
2022/06/10 12:46:31;;;;;;;4.22;1.25;;;26.20;62.10;;;;;;5017416;28;20025;-75
2022/06/10 12:48:56;;;;;;;3.72;1.30;;;26.00;61.90;;;;;;5023397;28;20360;-75
2022/06/10 12:51:43;;;;;;;5.28;1.30;;;25.80;62.10;;;;;;5020035;28;20595;-75
2022/06/10 12:54:25;;;;;;;4.43;1.17;;;25.40;63.10;;;;;;5008143;28;20472;-76
2022/06/10 12:57:35;;;;;;;3.67;1.17;;;25.10;63.60;;;;;;5017612;28;20028;-76
2022/06/10 13:00:19;;;;;;;2.65;1.25;;;24.80;63.70;;;;;;5013607;28;20494;-76
2022/06/10 13:02:50;;;;;;;4.88;1.23;;;24.50;65.90;;;;;;5023323;28;20060;-77
2022/06/10 13:05:19;;;;;;;2.97;1.10;;;24.50;66.20;;;;;;5024413;28;20762;-76
2022/06/10 13:07:47;;;;;;;4.38;1.20;;;24.80;66.30;;;;;;5023222;28;20021;-77
2022/06/10 13:10:32;;;;;;;4.97;1.23;;;25.40;65.60;;;;;;5021418;28;20022;-76
2022/06/10 13:13:23;;;;;;;4.20;1.33;;;26.00;63.70;;;;;;5011730;28;20037;-77
2022/06/10 13:16:24;;;;;;;6.18;1.60;;;26.50;62.60;;;;;;5024694;28;20037;-75
2022/06/10 13:18:58;;;;;;;4.30;1.50;;;27.00;60.50;;;;;;5019672;28;20831;-75
2022/06/10 13:21:30;;;;;;;4.70;1.67;;;27.20;59.10;;;;;;5011193;28;20434;-75
2022/06/10 13:23:58;;;;;;;5.13;1.50;;;27.30;59.50;;;;;;5013246;28;20334;-75
2022/06/10 13:26:24;;;;;;;5.20;1.23;;;27.00;79.30;;;;;;5021965;28;20512;-76
2022/06/10 13:28:50;;;;;;;3.83;1.15;;;26.60;80.00;;;;;;5011542;28;20035;-75
2022/06/10 13:31:24;;;;;;;6.13;1.58;;;26.30;81.20;;;;;;5023367;28;20030;-75
2022/06/10 13:34:02;;;;;;;4.20;1.30;;;26.00;80.90;;;;;;5023051;28;20042;-75
2022/06/10 13:36:35;;;;;;;3.58;1.30;;;25.70;82.10;;;;;;5016961;28;20026;-76